createdAt,value
2019-04-21T00:00:25.971Z,17.87
2019-04-21T00:03:01.864Z,19.23
2019-04-21T00:05:54.475Z,19.77
2019-04-21T00:08:33.419Z,18.20
2019-04-21T00:10:57.849Z,18.13
2019-04-21T00:13:20.498Z,19.80
2019-04-21T00:15:46.808Z,19.33
2019-04-21T00:18:55.812Z,19.23
2019-04-21T00:21:31.543Z,18.60
2019-04-21T00:24:23.833Z,18.73
2019-04-21T00:27:03.908Z,17.87
2019-04-21T00:29:38.574Z,17.33
2019-04-21T00:32:03.436Z,16.23
2019-04-21T00:34:21.614Z,16.03
2019-04-21T00:37:03.159Z,15.97
2019-04-21T00:42:14.358Z,16.13
2019-04-21T00:44:39.726Z,14.87
2019-04-21T00:47:27.854Z,15.17
2019-04-21T00:49:56.592Z,15.03
2019-04-21T00:52:56.617Z,15.13
2019-04-21T00:55:48.635Z,15.27
2019-04-21T00:58:28.613Z,15.10
2019-04-21T01:00:58.908Z,15.03
2019-04-21T01:03:46.297Z,14.37
2019-04-21T01:06:14.322Z,14.93
2019-04-21T01:08:31.593Z,14.17
2019-04-21T01:10:57.036Z,14.77
2019-04-21T01:13:41.478Z,13.93
2019-04-21T01:16:07.233Z,14.37
2019-04-21T01:18:37.997Z,15.10
2019-04-21T01:20:52.273Z,15.50
2019-04-21T01:23:23.404Z,13.77
2019-04-21T01:26:06.841Z,15.53
2019-04-21T01:28:41.093Z,14.60
2019-04-21T01:31:17.509Z,16.10
2019-04-21T01:33:50.592Z,14.87
2019-04-21T01:36:17.759Z,14.27
2019-04-21T01:39:02.124Z,15.13
2019-04-21T01:41:34.398Z,15.80
2019-04-21T01:43:55.578Z,13.87
2019-04-21T01:46:31.006Z,13.70
2019-04-21T01:48:59.368Z,15.30
2019-04-21T01:51:32.701Z,14.77
2019-04-21T01:54:31.754Z,15.03
2019-04-21T01:57:08.534Z,15.07
2019-04-21T01:59:35.261Z,14.73
2019-04-21T02:02:18.846Z,14.87
2019-04-21T02:04:50.048Z,15.40
2019-04-21T02:07:20.581Z,16.03
2019-04-21T02:09:51.309Z,15.40
2019-04-21T02:12:30.016Z,14.90
2019-04-21T02:15:17.072Z,15.40
2019-04-21T02:17:31.059Z,16.10
2019-04-21T02:19:55.136Z,15.00
2019-04-21T02:22:46.749Z,16.07
2019-04-21T02:25:13.969Z,15.40
2019-04-21T02:27:43.787Z,16.33
2019-04-21T02:30:22.374Z,16.77
2019-04-21T02:38:01.304Z,18.07
2019-04-21T02:40:38.986Z,18.10
2019-04-21T02:43:07.357Z,17.87
2019-04-21T02:45:37.804Z,19.37
2019-04-21T02:48:10.731Z,19.47
2019-04-21T02:53:20.337Z,18.03
2019-04-21T02:55:58.706Z,18.87
2019-04-21T02:58:31.593Z,17.60
2019-04-21T03:04:30.243Z,18.27
2019-04-21T03:07:09.634Z,18.80
2019-04-21T03:09:37.044Z,19.67
2019-04-21T03:12:14.926Z,19.43
2019-04-21T03:17:22.363Z,19.10
2019-04-21T03:19:55.490Z,19.33
2019-04-21T03:22:22.617Z,20.13
2019-04-21T03:27:40.652Z,19.30
2019-04-21T03:29:59.304Z,19.03
2019-04-21T03:33:16.360Z,20.83
2019-04-21T03:40:07.618Z,20.73
2019-04-21T03:42:42.999Z,19.07
2019-04-21T03:45:16.846Z,19.13
2019-04-21T03:50:12.821Z,19.60
2019-04-21T04:06:33.905Z,20.87
2019-04-21T04:09:19.483Z,19.83
2019-04-21T04:11:53.041Z,20.27
2019-04-21T04:16:59.036Z,20.80
2019-04-21T04:19:30.058Z,20.17
2019-04-21T04:24:29.921Z,19.40
2019-04-21T04:29:31.322Z,20.73
2019-04-21T04:32:24.912Z,19.83
2019-04-21T04:34:47.694Z,20.87
2019-04-21T04:37:23.152Z,21.00
2019-04-21T04:42:58.433Z,18.33
2019-04-21T04:48:11.839Z,17.87
2019-04-21T04:50:41.663Z,17.40
2019-04-21T04:53:15.683Z,17.00
2019-04-21T04:55:38.883Z,16.80
2019-04-21T04:58:29.625Z,16.63
2019-04-21T05:01:08.050Z,16.77
2019-04-21T05:03:27.186Z,15.73
2019-04-21T05:06:34.921Z,15.17
2019-04-21T05:09:06.270Z,15.20
2019-04-21T05:11:39.567Z,14.73
2019-04-21T05:14:07.605Z,13.93
2019-04-21T05:16:46.776Z,14.43
2019-04-21T05:23:55.862Z,13.80
2019-04-21T05:26:25.804Z,14.67
2019-04-21T05:28:55.477Z,13.70
2019-04-21T05:31:56.537Z,14.70
2019-04-21T05:34:30.532Z,13.53
2019-04-21T05:37:07.516Z,13.37
2019-04-21T05:39:55.842Z,13.30
2019-04-21T05:42:30.484Z,13.77
2019-04-21T05:45:10.592Z,15.13
2019-04-21T05:48:13.449Z,13.17
2019-04-21T05:50:35.027Z,13.03
2019-04-21T05:53:00.215Z,13.33
2019-04-21T05:55:46.376Z,13.17
2019-04-21T05:58:07.048Z,12.77
2019-04-21T06:01:15.412Z,13.03
2019-04-21T06:03:35.229Z,13.87
2019-04-21T06:08:34.279Z,13.93
2019-04-21T06:11:09.707Z,14.40
2019-04-21T06:13:42.786Z,13.57
2019-04-21T06:16:07.107Z,13.97
2019-04-21T06:18:50.586Z,13.80
2019-04-21T06:21:20.464Z,13.90
2019-04-21T06:23:47.795Z,13.13
2019-04-21T06:26:44.762Z,14.37
2019-04-21T06:29:07.332Z,13.10
2019-04-21T06:31:42.189Z,14.57
2019-04-21T06:33:58.814Z,13.73
2019-04-21T06:37:01.689Z,14.37
2019-04-21T06:39:31.744Z,13.77
2019-04-21T06:41:58.593Z,14.70
2019-04-21T06:44:33.702Z,13.87
2019-04-21T06:47:06.056Z,13.63
2019-04-21T06:49:30.228Z,13.03
2019-04-21T06:52:22.184Z,12.93
2019-04-21T06:54:42.242Z,12.60
2019-04-21T06:57:15.159Z,13.07
2019-04-21T06:59:40.562Z,12.53
2019-04-21T07:02:36.237Z,12.03
2019-04-21T07:04:50.124Z,12.50
2019-04-21T07:07:26.377Z,12.13
2019-04-21T07:09:57.154Z,12.50
2019-04-21T07:12:23.150Z,13.47
2019-04-21T07:15:01.967Z,12.13
2019-04-21T07:20:17.184Z,11.17
2019-04-21T07:22:37.541Z,11.37
2019-04-21T07:25:10.806Z,11.87
2019-04-21T07:27:43.515Z,11.37
2019-04-21T07:30:17.696Z,12.13
2019-04-21T07:32:50.804Z,12.03
2019-04-21T07:35:17.501Z,11.27
2019-04-21T07:37:51.020Z,11.30
2019-04-21T07:40:15.179Z,11.90
2019-04-21T07:42:49.758Z,10.77
2019-04-21T07:45:19.494Z,11.33
2019-04-21T07:48:13.763Z,10.60
2019-04-21T07:50:52.088Z,11.30
2019-04-21T07:53:36.796Z,11.50
2019-04-21T07:55:41.131Z,10.53
2019-04-21T07:58:36.404Z,11.40
2019-04-21T08:01:04.397Z,10.70
2019-04-21T08:03:43.847Z,10.57
2019-04-21T08:06:19.332Z,9.87
2019-04-21T08:08:41.082Z,10.37
2019-04-21T08:11:10.922Z,9.43
2019-04-21T08:16:17.430Z,9.20
2019-04-21T08:18:53.577Z,9.67
2019-04-21T08:21:26.534Z,9.10
2019-04-21T08:23:54.222Z,8.73
2019-04-21T08:26:31.172Z,9.10
2019-04-21T08:29:04.350Z,8.13
2019-04-21T08:31:38.964Z,9.60
2019-04-21T08:34:08.234Z,9.47
2019-04-21T08:36:33.993Z,10.43
2019-04-21T08:39:06.496Z,10.47
2019-04-21T08:41:40.855Z,9.10
2019-04-21T08:44:10.642Z,10.77
2019-04-21T08:46:48.757Z,11.17
2019-04-21T08:49:20.370Z,13.03
2019-04-21T08:51:57.312Z,12.90
2019-04-21T08:54:29.130Z,13.03
2019-04-21T08:57:24.239Z,12.70
2019-04-21T09:00:16.377Z,12.37
2019-04-21T09:02:47.573Z,13.17
2019-04-21T09:05:17.564Z,13.20
2019-04-21T09:07:53.674Z,12.73
2019-04-21T09:10:21.957Z,13.30
2019-04-21T09:12:52.252Z,11.97
2019-04-21T09:15:26.223Z,11.40
2019-04-21T09:17:48.661Z,11.87
2019-04-21T09:20:33.812Z,11.00
2019-04-21T09:23:00.796Z,11.07
2019-04-21T09:25:40.579Z,11.50
2019-04-21T09:28:04.103Z,11.00
2019-04-21T09:30:19.968Z,10.70
2019-04-21T09:32:54.498Z,10.40
2019-04-21T09:35:24.104Z,9.57
2019-04-21T09:38:02.137Z,9.60
2019-04-21T09:40:33.629Z,10.17
2019-04-21T09:43:04.745Z,10.40
2019-04-21T09:45:32.943Z,10.03
2019-04-21T09:48:10.144Z,10.50
2019-04-21T09:50:37.780Z,8.00
2019-04-21T09:53:16.956Z,8.17
2019-04-21T09:55:48.764Z,8.38
2019-04-21T09:58:21.804Z,7.97
2019-04-21T10:00:57.290Z,7.53
2019-04-21T10:03:19.428Z,8.10
2019-04-21T10:05:49.822Z,7.90
2019-04-21T10:08:20.662Z,7.73
2019-04-21T10:10:51.188Z,7.57
2019-04-21T10:13:21.617Z,8.37
2019-04-21T10:16:11.038Z,7.80
2019-04-21T10:18:41.849Z,8.30
2019-04-21T10:21:13.185Z,7.73
2019-04-21T10:23:43.855Z,7.80
2019-04-21T10:26:14.622Z,8.50
2019-04-21T10:28:45.141Z,8.33
2019-04-21T10:31:16.691Z,8.65
2019-04-21T10:33:48.407Z,8.58
2019-04-21T10:36:19.115Z,8.68
2019-04-21T10:38:53.170Z,8.80
2019-04-21T10:41:23.370Z,7.90
2019-04-21T10:43:55.506Z,7.83
2019-04-21T10:46:26.700Z,7.70
2019-04-21T10:48:58.837Z,8.40
2019-04-21T10:51:30.817Z,9.43
2019-04-21T10:54:02.143Z,8.83
2019-04-21T10:56:38.081Z,7.58
2019-04-21T10:59:04.975Z,8.33
2019-04-21T11:01:36.808Z,7.55
2019-04-21T11:04:25.430Z,8.15
2019-04-21T11:06:52.801Z,7.80
2019-04-21T11:09:24.152Z,7.80
2019-04-21T11:11:55.756Z,7.40
2019-04-21T11:14:27.217Z,7.75
2019-04-21T11:16:58.588Z,7.80
2019-04-21T11:19:30.706Z,7.70
2019-04-21T11:22:02.867Z,7.17
2019-04-21T11:24:35.086Z,7.35
2019-04-21T11:27:06.746Z,7.67
2019-04-21T11:29:39.232Z,7.15
2019-04-21T11:32:09.732Z,7.25
2019-04-21T11:34:41.116Z,7.25
2019-04-21T11:37:12.517Z,6.75
2019-04-21T11:39:52.013Z,7.25
2019-04-21T11:42:27.922Z,7.10
2019-04-21T11:44:58.667Z,7.40
2019-04-21T11:47:34.300Z,7.40
2019-04-21T11:50:07.291Z,7.37
2019-04-21T11:52:38.893Z,8.33
2019-04-21T11:55:10.997Z,7.65
2019-04-21T11:57:46.266Z,7.35
2019-04-21T12:00:14.090Z,7.80
2019-04-21T12:02:45.706Z,7.25
2019-04-21T12:05:17.329Z,7.30
2019-04-21T12:07:47.786Z,8.33
2019-04-21T12:10:19.534Z,7.87
2019-04-21T12:12:50.975Z,8.03
2019-04-21T12:15:22.936Z,7.70
2019-04-21T12:17:54.293Z,7.80
2019-04-21T12:20:26.424Z,7.47
2019-04-21T12:22:57.023Z,8.00
2019-04-21T12:25:31.267Z,7.42
2019-04-21T12:28:01.844Z,7.70
2019-04-21T12:30:33.630Z,8.15
2019-04-21T12:33:14.054Z,9.05
2019-04-21T12:35:45.928Z,8.50
2019-04-21T12:38:28.386Z,8.58
2019-04-21T12:40:50.659Z,8.68
2019-04-21T12:43:21.225Z,7.90
2019-04-21T12:45:51.888Z,8.55
2019-04-21T12:48:22.517Z,8.23
2019-04-21T12:50:54.204Z,8.50
2019-04-21T12:53:25.677Z,7.50
2019-04-21T12:55:56.173Z,7.28
2019-04-21T12:58:26.606Z,8.85
2019-04-21T13:00:57.056Z,8.15
2019-04-21T13:03:28.665Z,7.95
2019-04-21T13:06:01.389Z,8.43
2019-04-21T13:08:41.547Z,8.93
2019-04-21T13:11:04.712Z,8.53
2019-04-21T13:13:35.718Z,9.30
2019-04-21T13:16:07.344Z,8.23
2019-04-21T13:18:37.850Z,8.95
2019-04-21T13:21:08.289Z,8.85
2019-04-21T13:23:39.127Z,8.20
2019-04-21T13:26:11.291Z,7.87
2019-04-21T13:28:42.594Z,8.00
2019-04-21T13:31:14.060Z,8.53
2019-04-21T13:33:46.063Z,8.05
2019-04-21T13:36:18.125Z,8.33
2019-04-21T13:39:38.090Z,8.15
2019-04-21T13:41:58.357Z,7.70
2019-04-21T13:44:21.262Z,9.58
2019-04-21T13:46:54.581Z,9.33
2019-04-21T13:49:27.446Z,8.73
2019-04-21T13:52:00.563Z,8.48
2019-04-21T13:54:33.774Z,8.38
2019-04-21T13:57:05.969Z,8.93
2019-04-21T13:59:38.489Z,7.95
2019-04-21T14:02:11.365Z,8.53
2019-04-21T14:04:45.351Z,8.28
2019-04-21T14:07:18.429Z,8.13
2019-04-21T14:09:58.921Z,7.83
2019-04-21T14:12:25.392Z,8.55
2019-04-21T14:14:57.570Z,8.90
2019-04-21T14:17:30.973Z,8.30
2019-04-21T14:20:03.564Z,8.98
2019-04-21T14:22:35.993Z,7.53
2019-04-21T14:25:09.941Z,8.40
2019-04-21T14:27:42.186Z,7.67
2019-04-21T14:30:16.544Z,7.90
2019-04-21T14:32:49.913Z,7.65
2019-04-21T14:35:23.072Z,8.35
2019-04-21T14:37:56.558Z,8.50
2019-04-21T14:40:31.399Z,7.87
2019-04-21T14:43:02.982Z,7.70
2019-04-21T14:45:50.508Z,7.12
2019-04-21T14:48:41.196Z,7.25
2019-04-21T14:51:43.256Z,7.17
2019-04-21T14:54:44.643Z,7.58
2019-04-21T14:57:17.069Z,7.28
2019-04-21T14:59:49.221Z,7.30
2019-04-21T15:02:22.288Z,7.17
2019-04-21T15:04:55.649Z,7.03
2019-04-21T15:07:27.866Z,7.70
2019-04-21T15:10:07.863Z,6.95
2019-04-21T15:12:34.070Z,6.97
2019-04-21T15:15:07.756Z,6.87
2019-04-21T15:17:40.180Z,6.30
2019-04-21T15:20:15.866Z,6.30
2019-04-21T15:22:46.471Z,6.47
2019-04-21T15:25:18.779Z,6.78
2019-04-21T15:27:52.777Z,5.67
2019-04-21T15:30:25.228Z,6.20
2019-04-21T15:32:58.090Z,6.00
2019-04-21T15:35:31.069Z,6.25
2019-04-21T15:38:04.153Z,6.35
2019-04-21T15:40:44.612Z,5.37
2019-04-21T15:43:10.696Z,5.50
2019-04-21T15:45:42.848Z,5.03
2019-04-21T15:48:16.111Z,4.60
2019-04-21T15:50:48.320Z,5.58
2019-04-21T15:53:21.626Z,5.33
2019-04-21T15:56:02.574Z,5.60
2019-04-21T15:58:58.951Z,5.15
2019-04-21T16:01:38.998Z,5.00
2019-04-21T16:04:12.547Z,4.97
2019-04-21T16:06:45.642Z,5.05
2019-04-21T16:09:21.766Z,4.97
2019-04-21T16:11:53.503Z,4.83
2019-04-21T16:14:27.071Z,4.60
2019-04-21T16:16:59.241Z,4.62
2019-04-21T16:19:33.340Z,4.87
2019-04-21T16:22:06.571Z,5.57
2019-04-21T16:24:39.851Z,7.87
2019-04-21T16:27:12.708Z,4.60
2019-04-21T16:29:45.754Z,4.70
2019-04-21T16:32:20.169Z,5.00
2019-04-21T16:34:58.058Z,4.87
2019-04-21T16:37:25.781Z,4.73
2019-04-21T16:39:59.088Z,5.47
2019-04-21T16:42:32.124Z,6.80
2019-04-21T16:45:07.276Z,5.80
2019-04-21T16:47:40.012Z,5.70
2019-04-21T16:50:13.904Z,6.00
2019-04-21T16:52:54.202Z,7.40
2019-04-21T16:55:35.230Z,5.50
2019-04-21T16:58:28.587Z,4.83
2019-04-21T17:01:08.576Z,4.60
2019-04-21T17:03:36.826Z,3.63
2019-04-21T17:06:09.108Z,4.27
2019-04-21T17:08:41.261Z,3.40
2019-04-21T17:11:20.401Z,3.60
2019-04-21T17:13:47.917Z,3.87
2019-04-21T17:16:51.476Z,3.60
2019-04-21T17:19:05.236Z,3.70
2019-04-21T17:21:29.639Z,3.40
2019-04-21T17:24:04.376Z,3.77
2019-04-21T17:26:39.407Z,3.60
2019-04-21T17:29:12.370Z,3.90
2019-04-21T17:31:45.697Z,45.07
2019-04-21T17:34:24.618Z,3.97
2019-04-21T17:36:55.050Z,3.17
2019-04-21T17:39:28.848Z,3.33
2019-04-21T17:42:14.236Z,3.83
2019-04-21T17:44:37.251Z,3.60
2019-04-21T17:47:21.717Z,3.37
2019-04-21T17:49:44.515Z,3.80
2019-04-21T17:52:53.633Z,3.60
2019-04-21T17:55:27.716Z,3.40
2019-04-21T17:58:11.915Z,3.70
2019-04-21T18:01:10.681Z,3.20
2019-04-21T18:03:37.463Z,3.57
2019-04-21T18:05:59.382Z,3.20
2019-04-21T18:08:37.102Z,3.23
2019-04-21T18:11:03.351Z,3.70
2019-04-21T18:13:26.857Z,3.53
2019-04-21T18:16:09.689Z,3.77
2019-04-21T18:18:34.816Z,3.70
2019-04-21T18:21:14.529Z,3.50
2019-04-21T18:24:00.105Z,3.30
2019-04-21T18:26:35.824Z,3.77
2019-04-21T18:29:01.062Z,3.07
2019-04-21T18:31:38.773Z,2.93
2019-04-21T18:34:16.279Z,3.80
2019-04-21T18:36:55.600Z,3.40
2019-04-21T18:39:46.436Z,3.23
2019-04-21T18:42:32.783Z,3.00
2019-04-21T18:45:50.277Z,3.50
2019-04-21T18:48:18.379Z,3.63
2019-04-21T18:50:58.976Z,3.50
2019-04-21T18:53:48.083Z,3.93
2019-04-21T18:56:11.183Z,3.43
2019-04-21T18:58:42.411Z,3.23
2019-04-21T19:01:22.449Z,3.40
2019-04-21T19:03:51.137Z,3.30
2019-04-21T19:06:42.420Z,3.87
2019-04-21T19:09:17.015Z,3.73
2019-04-21T19:11:48.068Z,3.50
2019-04-21T19:22:20.445Z,4.13
2019-04-21T19:24:59.471Z,3.93
2019-04-21T19:27:17.639Z,4.53
2019-04-21T19:29:58.335Z,4.43
2019-04-21T19:32:26.711Z,4.13
2019-04-21T19:34:44.973Z,4.23
2019-04-21T19:37:20.136Z,4.43
2019-04-21T19:40:03.281Z,4.83
2019-04-21T19:42:35.490Z,4.30
2019-04-21T19:45:16.525Z,4.80
2019-04-21T19:47:48.693Z,4.80
2019-04-21T19:50:28.633Z,4.60
2019-04-21T19:52:53.450Z,4.87
2019-04-21T19:55:15.954Z,4.63
2019-04-21T19:57:49.247Z,4.73
2019-04-21T20:00:22.753Z,4.63
2019-04-21T20:02:56.339Z,5.70
2019-04-21T20:05:36.123Z,5.10
2019-04-21T20:08:17.367Z,5.53
2019-04-21T20:10:57.955Z,5.47
2019-04-21T20:13:42.144Z,5.70
2019-04-21T20:16:06.581Z,5.90
2019-04-21T20:18:27.321Z,6.20
2019-04-21T20:20:54.355Z,7.27
2019-04-21T20:23:31.698Z,8.63
2019-04-21T20:26:04.568Z,11.10
2019-04-21T20:28:45.712Z,11.57
2019-04-21T20:31:23.369Z,11.60
2019-04-21T20:34:05.087Z,13.50
2019-04-21T20:36:32.859Z,16.73
2019-04-21T20:38:59.267Z,16.67
2019-04-21T20:41:39.493Z,16.80
2019-04-21T20:44:18.441Z,15.43
2019-04-21T20:46:51.559Z,14.33
2019-04-21T20:49:19.236Z,12.90
2019-04-21T20:52:06.120Z,12.67
2019-04-21T20:54:30.258Z,11.47
2019-04-21T20:57:06.151Z,10.80
2019-04-21T20:59:35.188Z,10.43
2019-04-21T21:02:10.321Z,9.53
2019-04-21T21:04:42.458Z,9.50
2019-04-21T21:07:36.469Z,8.17
2019-04-21T21:10:00.533Z,8.77
2019-04-21T21:12:37.162Z,8.40
2019-04-21T21:15:00.064Z,8.40
2019-04-21T21:17:50.347Z,8.33
2019-04-21T21:20:18.111Z,8.30
2019-04-21T21:22:44.840Z,8.47
2019-04-21T21:25:30.549Z,8.20
2019-04-21T21:27:48.269Z,8.77
2019-04-21T21:30:31.320Z,8.43
2019-04-21T21:33:05.543Z,9.30
2019-04-21T21:35:31.122Z,8.23
2019-04-21T21:38:13.471Z,8.60
2019-04-21T21:40:42.475Z,8.23
2019-04-21T21:43:09.207Z,8.23
2019-04-21T21:45:42.193Z,7.70
2019-04-21T21:48:27.493Z,7.80
2019-04-21T21:50:57.786Z,8.50
2019-04-21T21:53:21.447Z,8.93
2019-04-21T21:55:53.048Z,9.53
2019-04-21T21:58:31.665Z,11.07
2019-04-21T22:01:02.980Z,12.03
2019-04-21T22:03:39.830Z,12.20
2019-04-21T22:06:13.634Z,11.07
2019-04-21T22:08:42.670Z,11.40
2019-04-21T22:13:49.730Z,13.10
2019-04-21T22:16:18.163Z,14.47
2019-04-21T22:19:06.915Z,13.50
2019-04-21T22:21:41.244Z,12.37
2019-04-21T22:24:05.706Z,11.73
2019-04-21T22:26:31.647Z,11.50
2019-04-21T22:29:03.915Z,10.70
2019-04-21T22:31:39.664Z,11.37
2019-04-21T22:34:14.473Z,11.07
2019-04-21T22:36:56.313Z,10.73
2019-04-21T22:39:34.975Z,10.87
2019-04-21T22:42:01.748Z,9.80
2019-04-21T22:44:28.156Z,9.73
2019-04-21T22:47:09.685Z,10.20
2019-04-21T22:49:36.810Z,9.20
2019-04-21T22:52:15.192Z,9.93
2019-04-21T22:54:46.388Z,10.03
2019-04-21T22:57:21.607Z,10.33
2019-04-21T22:59:59.365Z,9.77
2019-04-21T23:02:29.610Z,11.23
2019-04-21T23:05:02.068Z,11.00
2019-04-21T23:07:44.151Z,11.03
2019-04-21T23:10:09.363Z,11.10
2019-04-21T23:12:43.777Z,10.67
2019-04-21T23:15:19.474Z,11.27
2019-04-21T23:18:08.910Z,10.40
2019-04-21T23:20:43.561Z,9.87
2019-04-21T23:23:16.143Z,9.57
2019-04-21T23:25:47.184Z,9.80
2019-04-21T23:28:24.003Z,10.60
2019-04-21T23:31:00.426Z,10.20
2019-04-21T23:33:18.016Z,10.73
2019-04-21T23:35:49.551Z,10.47
2019-04-21T23:38:30.248Z,10.83
2019-04-21T23:41:00.568Z,10.73
2019-04-21T23:43:32.992Z,10.80
2019-04-21T23:46:12.734Z,9.90
2019-04-21T23:48:55.909Z,11.13
2019-04-21T23:51:26.860Z,11.40
2019-04-21T23:53:47.247Z,11.50
2019-04-21T23:56:25.827Z,12.00
2019-04-21T23:59:02.671Z,10.77
